Crane, Oregon
Current Conditions -  °F | °C
As of 4:53 AM on Saturday 20 Dec 2014 (Local Time) from KBNO Reporting Station
Light Snow Light Snow  
Wind Chill: 28°   Ceiling: 1100
Heat Index: 33°   Visibility: 3mi
Dew Point: 31°   Wind: 6mph
Humidity: 92%   Direction: 160°SSE
Pressure: 29.96"   Gusts: NA
Location:  43.41°N, 118.58°W
Report Text: KBNO 201253Z AUTO 16005KT 3SM -SN BR OVC011 01/M01 A2996 RMK AO2 SLP161 P0008 T00061006
Loading
Personal Weather Stations






























Interactive Weather Map New forecast layout! Learn more

10-Day Weather Forecast

Advertisements
Track Severe Weather on mobile